Terminal Aerodrome Forecast
Issued by NWS

Home | Current Version | Previous Version | Text Only | Print | Product List | Glossary On
Versions: 1 2 3 4 5 6 7 8 9 10 11 12 13 14 15 16 17 18 19 20 21 22 23 24 25 26
000
FTUS44 KMAF 161700
TAFCNM
TAF
KCNM 161724Z 1618/1718 01004KT P6SM SCT040 BKN120
      TEMPO 1618/1622 4SM -RA BR OVC040
     FM170000 11008KT P6SM SCT030 BKN070
      TEMPO 1703/1707 3SM TSRA BR BKN035CB=

USA.gov is the U.S. government's official web portal to all federal, state and local government web resources and services.